Time;durP1;ratioP1;P1;durP2;ratioP2;P2;SDS_P1;SDS_P2;PMS_P1;PMS_P2;Temp;Humidity;BMP_temperature;BMP_pressure;BME280_temperature;BME280_humidity;BME280_pressure;Samples;Min_cycle;Max_cycle;Signal;HPM_P1;HPM_P2
2024/01/29 00:00:16;;;;;;;;;;;;;;;26.74;38.96;95441.72;4915070;29;7104;-37
2024/01/29 00:03:14;;;;;;;;;;;;;;;26.76;38.86;95441.97;4899152;29;7257;-37
2024/01/29 00:05:40;;;;;;;;;;;;;;;26.73;38.88;95452.00;4891832;29;9028;-37
2024/01/29 00:08:06;;;;;;;;;;;;;;;26.72;38.82;95444.19;4914266;29;7880;-37
2024/01/29 00:10:47;;;;;;;;;;;;;;;26.74;39.00;95447.25;4915475;29;8673;-54
2024/01/29 00:13:15;;;;;;;;;;;;;;;26.73;38.80;95440.22;4899081;29;6988;-54
2024/01/29 00:15:52;;;;;;;;;;;;;;;26.72;38.53;95442.19;4914873;29;9052;-54
2024/01/29 00:18:18;;;;;;;;;;;;;;;26.73;39.02;95449.25;4915181;29;9096;-55
2024/01/29 00:20:44;;;;;;;;;;;;;;;26.71;38.86;95439.91;4946900;28;7866;-41
2024/01/29 00:23:10;;;;;;;;;;;;;;;26.74;38.87;95444.47;4955784;28;7162;-43
2024/01/29 00:25:37;;;;;;;;;;;;;;;26.71;38.72;95445.44;4953039;28;6969;-42
2024/01/29 00:28:17;;;;;;;;;;;;;;;26.72;38.68;95449.72;4956974;28;7482;-42
2024/01/29 00:30:43;;;;;;;;;;;;;;;26.71;38.97;95448.94;4973061;28;7109;-41
2024/01/29 00:33:09;;;;;;;;;;;;;;;26.71;38.85;95442.66;4984292;28;9339;-43
2024/01/29 00:35:39;;;;;;;;;;;;;;;26.70;38.51;95452.22;5054900;28;7283;-41
2024/01/29 00:38:06;;;;;;;;;;;;;;;26.70;38.65;95446.69;5044093;28;7620;-43
2024/01/29 00:40:47;;;;;;;;;;;;;;;26.68;38.62;95449.97;5077078;28;7487;-42
2024/01/29 00:43:15;;;;;;;;;;;;;;;26.67;38.76;95453.19;5075272;28;7240;-42
2024/01/29 00:45:42;;;;;;;;;;;;;;;26.69;38.70;95451.44;5065047;28;7081;-42
2024/01/29 00:48:20;;;;;;;;;;;;;;;26.68;38.88;95447.19;5081868;28;8187;-42
2024/01/29 00:50:49;;;;;;;;;;;;;;;26.67;38.54;95447.66;5034238;28;9146;-41
2024/01/29 00:53:35;;;;;;;;;;;;;;;26.66;38.68;95449.69;5055334;28;6998;-42
2024/01/29 00:56:07;;;;;;;;;;;;;;;26.67;38.86;95447.66;5053343;28;8705;-41
2024/01/29 00:58:44;;;;;;;;;;;;;;;26.67;38.14;95442.91;5072342;28;9235;-43
2024/01/29 01:01:45;;;;;;;;;;;;;;;26.66;38.52;95441.41;5069752;28;7086;-43
2024/01/29 01:04:18;;;;;;;;;;;;;;;26.64;38.29;95443.16;5003218;28;7019;-41
2024/01/29 01:06:45;;;;;;;;;;;;;;;26.65;38.89;95450.16;4993645;28;7271;-42
2024/01/29 01:09:11;;;;;;;;;;;;;;;26.64;38.47;95443.16;4964961;28;10821;-42
2024/01/29 01:12:10;;;;;;;;;;;;;;;26.64;38.75;95451.44;4988195;28;7832;-42
2024/01/29 01:14:41;;;;;;;;;;;;;;;26.62;38.68;95445.66;4918515;29;7269;-42
2024/01/29 01:17:09;;;;;;;;;;;;;;;26.62;38.69;95446.38;4904435;29;9535;-41
2024/01/29 01:19:44;;;;;;;;;;;;;;;26.62;38.52;95445.66;4908351;29;8784;-41
2024/01/29 01:22:12;;;;;;;;;;;;;;;26.61;38.89;95455.16;4927062;29;7227;-42
2024/01/29 01:24:40;;;;;;;;;;;;;;;26.59;38.74;95454.91;4917046;29;7213;-42
2024/01/29 01:27:06;;;;;;;;;;;;;;;26.61;38.59;95466.97;4906923;29;8585;-41
2024/01/29 01:29:32;;;;;;;;;;;;;;;26.60;38.52;95459.19;4916569;29;7168;-41
2024/01/29 01:31:58;;;;;;;;;;;;;;;26.60;38.14;95459.19;4917669;29;6953;-37
2024/01/29 01:34:26;;;;;;;;;;;;;;;26.59;38.20;95457.66;4925543;29;7247;-37
2024/01/29 01:36:55;;;;;;;;;;;;;;;26.61;38.74;95460.69;4922359;29;7063;-37
2024/01/29 01:39:23;;;;;;;;;;;;;;;26.60;38.73;95464.69;4999615;28;7051;-37
2024/01/29 01:41:51;;;;;;;;;;;;;;;26.60;38.32;95459.19;4996914;28;7128;-37
2024/01/29 01:44:16;;;;;;;;;;;;;;;26.59;38.83;95452.91;4999094;28;6960;-37
2024/01/29 01:46:42;;;;;;;;;;;;;;;26.58;38.07;95461.66;5005050;28;7240;-37
2024/01/29 01:49:11;;;;;;;;;;;;;;;26.60;38.65;95464.69;5017183;28;7223;-37
2024/01/29 01:51:44;;;;;;;;;;;;;;;26.59;38.17;95452.91;5053520;28;7357;-37
2024/01/29 01:54:11;;;;;;;;;;;;;;;26.58;38.61;95451.38;5061759;28;9133;-37
2024/01/29 01:56:50;;;;;;;;;;;;;;;26.58;38.43;95456.91;5051891;28;7238;-36
2024/01/29 01:59:19;;;;;;;;;;;;;;;26.56;38.44;95453.13;5063486;28;7520;-37
2024/01/29 02:01:46;;;;;;;;;;;;;;;26.58;38.79;95456.13;5033625;28;7107;-37
2024/01/29 02:04:19;;;;;;;;;;;;;;;26.57;38.02;95457.41;5062029;28;7589;-37
2024/01/29 02:06:46;;;;;;;;;;;;;;;26.56;38.27;95455.88;5047303;28;7808;-38
2024/01/29 02:09:13;;;;;;;;;;;;;;;26.57;38.45;95449.13;5053947;28;7047;-36
2024/01/29 02:11:39;;;;;;;;;;;;;;;26.58;38.54;95456.13;5030008;28;7200;-37
2024/01/29 02:14:18;;;;;;;;;;;;;;;26.57;38.45;95460.16;5062016;28;7042;-36
2024/01/29 02:17:04;;;;;;;;;;;;;;;26.56;38.00;95455.88;5052392;28;7411;-37
2024/01/29 02:19:31;;;;;;;;;;;;;;;26.58;38.00;95464.41;5043106;28;7066;-37
2024/01/29 02:22:13;;;;;;;;;;;;;;;26.57;38.22;95460.16;5049215;28;6982;-37
2024/01/29 02:24:44;;;;;;;;;;;;;;;26.58;38.98;95464.41;5067619;28;7422;-37
2024/01/29 02:27:13;;;;;;;;;;;;;;;26.56;38.27;95462.16;5050773;28;7201;-37
2024/01/29 02:29:40;;;;;;;;;;;;;;;26.57;38.23;95468.44;5046527;28;6979;-37
2024/01/29 02:32:07;;;;;;;;;;;;;;;26.56;38.31;95464.16;5054593;28;9104;-37
2024/01/29 02:34:38;;;;;;;;;;;;;;;26.54;38.62;95461.13;5048124;28;8775;-37
2024/01/29 02:37:04;;;;;;;;;;;;;;;26.57;38.47;95466.44;5067751;28;7234;-37
2024/01/29 02:39:30;;;;;;;;;;;;;;;26.56;38.20;95466.91;5054599;28;9113;-37
2024/01/29 02:42:05;;;;;;;;;;;;;;;26.56;38.38;95458.63;5069437;28;7193;-37
2024/01/29 02:44:34;;;;;;;;;;;;;;;26.58;38.23;95467.16;5047100;28;7084;-37
2024/01/29 02:47:02;;;;;;;;;;;;;;;26.54;37.86;95456.38;5067608;28;7158;-37
2024/01/29 02:49:39;;;;;;;;;;;;;;;26.52;38.49;95453.34;5062000;28;9483;-37
2024/01/29 02:52:14;;;;;;;;;;;;;;;26.53;38.14;95459.63;5046149;28;7078;-37
2024/01/29 02:54:45;;;;;;;;;;;;;;;26.53;38.08;95459.63;5064972;28;8555;-37
2024/01/29 02:57:23;;;;;;;;;;;;;;;26.50;38.07;95450.31;5058265;28;9980;-37
2024/01/29 02:59:59;;;;;;;;;;;;;;;26.53;37.89;95454.13;5040247;28;7000;-37
2024/01/29 03:02:38;;;;;;;;;;;;;;;26.54;38.04;95456.38;5062521;28;9125;-37
2024/01/29 03:05:04;;;;;;;;;;;;;;;26.52;38.03;95447.06;5055799;28;6971;-37
2024/01/29 03:07:30;;;;;;;;;;;;;;;26.54;37.78;95455.59;5052291;28;9107;-37
2024/01/29 03:09:56;;;;;;;;;;;;;;;26.52;38.13;95452.59;5054484;28;8624;-37
2024/01/29 03:12:59;;;;;;;;;;;;;;;26.54;38.15;95456.38;5062386;28;8807;-37
2024/01/29 03:15:34;;;;;;;;;;;;;;;26.51;38.14;95457.34;4982471;28;9057;-37
2024/01/29 03:18:28;;;;;;;;;;;;;;;26.51;38.07;95457.34;5001454;28;6995;-37
2024/01/29 03:21:13;;;;;;;;;;;;;;;26.51;38.17;95462.13;4943040;28;7365;-37
2024/01/29 03:24:18;;;;;;;;;;;;;;;26.51;37.35;95462.84;4937521;28;7241;-37
2024/01/29 03:27:21;;;;;;;;;;;;;;;26.50;37.67;95460.59;4959007;28;7215;-37
2024/01/29 03:29:48;;;;;;;;;;;;;;;26.47;37.77;95458.84;4968708;28;7335;-37
2024/01/29 03:32:49;;;;;;;;;;;;;;;26.48;37.73;95457.59;4980973;28;7147;-37
2024/01/29 03:35:24;;;;;;;;;;;;;;;26.48;37.81;95461.09;4899574;29;7257;-37
2024/01/29 03:38:10;;;;;;;;;;;;;;;26.46;38.16;95458.09;4921333;29;7241;-37
2024/01/29 03:41:10;;;;;;;;;;;;;;;26.48;37.87;95460.34;4915261;29;7247;-37
2024/01/29 03:43:55;;;;;;;;;;;;;;;26.44;38.17;95455.06;4915411;29;7233;-37
2024/01/29 03:46:42;;;;;;;;;;;;;;;26.45;38.20;95455.78;4912763;29;7247;-37
2024/01/29 03:49:22;;;;;;;;;;;;;;;26.45;37.42;95464.84;4926971;29;8533;-37
2024/01/29 03:52:02;;;;;;;;;;;;;;;26.47;37.96;95464.34;4937707;29;8728;-37
2024/01/29 03:54:29;;;;;;;;;;;;;;;26.44;38.06;95457.06;4954633;28;8830;-37
2024/01/29 03:57:00;;;;;;;;;;;;;;;26.44;38.31;95459.81;4956188;28;9133;-37
2024/01/29 03:59:43;;;;;;;;;;;;;;;26.46;38.26;95460.06;4967901;28;8699;-37
2024/01/29 04:02:46;;;;;;;;;;;;;;;26.47;37.93;95464.34;5002632;28;6990;-37
2024/01/29 04:05:12;;;;;;;;;;;;;;;26.44;38.02;95466.09;4959632;28;7075;-36
2024/01/29 04:07:39;;;;;;;;;;;;;;;26.45;37.59;95466.81;4946693;28;9539;-37
2024/01/29 04:10:05;;;;;;;;;;;;;;;26.44;38.07;95463.34;4966146;28;7301;-38
2024/01/29 04:12:46;;;;;;;;;;;;;;;26.40;38.07;95451.78;4979164;28;7230;-37
2024/01/29 04:15:21;;;;;;;;;;;;;;;26.43;38.09;95452.78;4979643;28;8738;-37
2024/01/29 04:17:58;;;;;;;;;;;;;;;26.38;37.79;95445.22;5008841;28;9194;-37
2024/01/29 04:20:33;;;;;;;;;;;;;;;26.41;38.16;95449.75;4982837;28;8733;-37
2024/01/29 04:23:26;;;;;;;;;;;;;;;26.42;38.00;95451.28;4996544;28;6948;-37
2024/01/29 04:26:12;;;;;;;;;;;;;;;26.41;37.99;95456.03;4988349;28;9115;-37
2024/01/29 04:28:39;;;;;;;;;;;;;;;26.42;38.07;95459.56;5003710;28;9123;-37
2024/01/29 04:31:25;;;;;;;;;;;;;;;26.44;37.42;95451.53;4981108;28;7214;-37
2024/01/29 04:33:51;;;;;;;;;;;;;;;26.41;38.12;95452.50;4996036;28;7099;-37
2024/01/29 04:37:01;;;;;;;;;;;;;;;26.41;37.93;95458.03;4978972;28;9501;-37
2024/01/29 04:39:27;;;;;;;;;;;;;;;26.41;38.22;95456.03;4989927;28;6874;-37
2024/01/29 04:42:09;;;;;;;;;;;;;;;26.40;38.01;95451.78;5060606;28;7713;-37
2024/01/29 04:44:36;;;;;;;;;;;;;;;26.39;37.58;95453.00;5050768;28;7438;-37
2024/01/29 04:47:13;;;;;;;;;;;;;;;26.42;37.74;95445.75;5073154;28;7449;-37
2024/01/29 04:49:50;;;;;;;;;;;;;;;26.37;37.83;95447.22;5043964;28;9301;-37
2024/01/29 04:52:17;;;;;;;;;;;;;;;26.40;38.14;95451.00;5084100;28;7490;-37
2024/01/29 04:54:44;;;;;;;;;;;;;;;26.39;37.82;95449.50;5063545;28;7126;-37
2024/01/29 04:57:29;;;;;;;;;;;;;;;26.38;37.85;95448.72;5080259;28;9247;-37
2024/01/29 05:00:15;;;;;;;;;;;;;;;26.40;37.93;95446.25;5062344;28;7459;-41
2024/01/29 05:02:43;;;;;;;;;;;;;;;26.38;37.70;95448.72;5090224;28;7367;-42
2024/01/29 05:05:09;;;;;;;;;;;;;;;26.37;37.62;95444.47;5086994;28;7255;-40
2024/01/29 05:07:35;;;;;;;;;;;;;;;26.37;37.98;95446.47;5077445;28;7142;-41
2024/01/29 05:10:01;;;;;;;;;;;;;;;26.35;38.44;95449.72;5076134;28;7541;-42
2024/01/29 05:12:28;;;;;;;;;;;;;;;26.29;38.38;95446.16;5054857;28;7236;-42
2024/01/29 05:15:15;;;;;;;;;;;;;;;26.30;38.03;95453.19;5037670;28;7264;-41
2024/01/29 05:17:47;;;;;;;;;;;;;;;26.27;38.43;95447.91;5045390;28;9189;-42
2024/01/29 05:20:19;;;;;;;;;;;;;;;26.27;38.01;95447.91;5071017;28;7225;-41
2024/01/29 05:22:51;;;;;;;;;;;;;;;26.26;37.89;95451.91;5062411;28;7051;-43
2024/01/29 05:25:27;;;;;;;;;;;;;;;26.19;37.78;95439.31;5063017;28;7503;-43
2024/01/29 05:27:59;;;;;;;;;;;;;;;26.19;38.13;95442.06;5055831;28;8742;-43
2024/01/29 05:30:54;;;;;;;;;;;;;;;26.16;38.69;95445.81;5083936;28;6918;-42
2024/01/29 05:33:38;;;;;;;;;;;;;;;26.12;38.67;95440.50;5033515;28;8536;-43
2024/01/29 05:36:04;;;;;;;;;;;;;;;26.12;38.15;95443.25;5029561;28;9168;-43
2024/01/29 05:38:32;;;;;;;;;;;;;;;26.10;39.04;95434.72;5029083;28;9432;-42
2024/01/29 05:40:58;;;;;;;;;;;;;;;26.08;38.74;95442.75;5035789;28;8885;-42
2024/01/29 05:43:27;;;;;;;;;;;;;;;26.08;38.52;95439.19;5020901;28;7175;-41
2024/01/29 05:45:59;;;;;;;;;;;;;;;26.08;38.63;95442.75;5021097;28;7215;-44
2024/01/29 05:48:59;;;;;;;;;;;;;;;26.12;39.04;95448.03;5040799;28;8056;-42
2024/01/29 05:51:42;;;;;;;;;;;;;;;26.21;38.32;95438.84;4947081;28;7281;-41
2024/01/29 05:54:08;;;;;;;;;;;;;;;26.24;37.95;95435.09;4934953;28;9205;-42
2024/01/29 05:56:34;;;;;;;;;;;;;;;26.20;38.34;95431.78;4929819;28;9054;-42
2024/01/29 05:59:00;;;;;;;;;;;;;;;26.19;37.71;95435.81;4946024;28;7211;-41
2024/01/29 06:01:28;;;;;;;;;;;;;;;26.21;38.53;95438.84;4942623;28;7188;-59
2024/01/29 06:04:02;;;;;;;;;;;;;;;26.25;37.98;95439.38;4923093;28;7247;-37
2024/01/29 06:06:28;;;;;;;;;;;;;;;26.29;38.12;95435.16;4922359;28;7090;-37
2024/01/29 06:08:54;;;;;;;;;;;;;;;26.31;38.64;95440.91;4947073;28;7156;-37
2024/01/29 06:11:20;;;;;;;;;;;;;;;26.29;38.37;95437.91;4931864;28;9232;-37
2024/01/29 06:13:46;;;;;;;;;;;;;;;26.30;38.73;95433.88;4939927;28;7106;-37
2024/01/29 06:16:22;;;;;;;;;;;;;;;26.31;38.60;95440.16;4943250;28;7972;-37
2024/01/29 06:18:53;;;;;;;;;;;;;;;26.30;39.08;95446.91;4952851;28;8698;-37
2024/01/29 06:21:24;;;;;;;;;;;;;;;26.33;38.76;95443.19;4942877;28;7089;-37
2024/01/29 06:23:53;;;;;;;;;;;;;;;26.30;38.96;95441.38;4956985;28;9393;-37
2024/01/29 06:26:22;;;;;;;;;;;;;;;26.30;40.05;95436.63;4978198;28;7519;-38
2024/01/29 06:28:56;;;;;;;;;;;;;;;26.32;39.61;95433.41;5043313;28;7062;-37
2024/01/29 06:31:22;;;;;;;;;;;;;;;26.38;39.64;95439.72;5068018;28;7065;-37
2024/01/29 06:33:55;;;;;;;;;;;;;;;26.38;39.56;95436.97;5061179;28;7106;-37
2024/01/29 06:36:31;;;;;;;;;;;;;;;26.34;38.94;95433.66;5058746;28;7267;-37
2024/01/29 06:38:58;;;;;;;;;;;;;;;26.38;39.36;95436.97;5065012;28;9117;-37
2024/01/29 06:41:27;;;;;;;;;;;;;;;26.39;39.54;95439.22;5077515;28;7002;-38
2024/01/29 06:43:54;;;;;;;;;;;;;;;26.40;39.09;95440.75;5060075;28;8673;-38
2024/01/29 06:46:21;;;;;;;;;;;;;;;26.38;38.85;95436.97;5053126;28;7312;-37
2024/01/29 06:48:47;;;;;;;;;;;;;;;26.37;38.53;95441.72;5058487;28;7515;-37
2024/01/29 06:51:21;;;;;;;;;;;;;;;26.39;38.75;95438.44;5074349;28;7073;-38
2024/01/29 06:53:48;;;;;;;;;;;;;;;26.39;38.93;95443.97;5078917;28;7326;-38
2024/01/29 06:56:16;;;;;;;;;;;;;;;26.36;38.81;95447.72;5047168;28;6989;-37
2024/01/29 06:58:49;;;;;;;;;;;;;;;26.38;38.80;95442.47;5052109;28;7003;-37
2024/01/29 07:01:21;;;;;;;;;;;;;;;26.37;37.89;95446.47;5048097;28;7000;-38
2024/01/29 07:04:13;;;;;;;;;;;;;;;26.38;38.05;95445.22;5062435;28;7200;-37
2024/01/29 07:06:43;;;;;;;;;;;;;;;26.35;38.56;95446.19;4987545;28;7466;-37
2024/01/29 07:09:09;;;;;;;;;;;;;;;26.33;38.40;95452.22;4977829;28;8831;-38
2024/01/29 07:11:35;;;;;;;;;;;;;;;26.35;38.19;95455.25;4979219;28;7240;-37
2024/01/29 07:14:03;;;;;;;;;;;;;;;26.36;37.80;95461.53;4961606;28;9146;-37
2024/01/29 07:16:45;;;;;;;;;;;;;;;26.33;37.82;95465.25;4980917;28;7236;-37
2024/01/29 07:19:12;;;;;;;;;;;;;;;26.36;38.39;95462.25;4982049;28;9056;-37
2024/01/29 07:22:18;;;;;;;;;;;;;;;26.39;37.94;95466.03;4976995;28;9203;-37
2024/01/29 07:24:45;;;;;;;;;;;;;;;26.38;37.80;95459.03;4900207;29;7227;-37
2024/01/29 07:27:20;;;;;;;;;;;;;;;26.36;38.63;95453.97;4915986;29;7819;-37
2024/01/29 07:29:59;;;;;;;;;;;;;;;26.35;38.23;95454.47;4924752;29;7046;-37
2024/01/29 07:32:36;;;;;;;;;;;;;;;26.34;37.79;95450.94;4915780;29;8785;-37
2024/01/29 07:35:48;;;;;;;;;;;;;;;26.38;37.90;95456.25;4911091;29;8761;-37
2024/01/29 07:38:14;;;;;;;;;;;;;;;26.39;38.09;95463.28;4862537;29;6904;-37
2024/01/29 07:40:56;;;;;;;;;;;;;;;26.38;38.41;95461.78;4873327;29;8717;-37
2024/01/29 07:43:31;;;;;;;;;;;;;;;26.39;38.00;95466.03;4865222;29;7618;-37
2024/01/29 07:46:00;;;;;;;;;;;;;;;26.40;37.71;95473.09;4912018;29;6978;-37
2024/01/29 07:49:03;;;;;;;;;;;;;;;26.40;37.49;95470.31;4917987;29;7012;-37
2024/01/29 07:51:44;;;;;;;;;;;;;;;26.41;37.67;95480.84;4918567;29;7248;-37
2024/01/29 07:54:14;;;;;;;;;;;;;;;26.41;38.00;95475.34;4915692;29;7220;-37
2024/01/29 07:56:42;;;;;;;;;;;;;;;26.42;38.07;95478.88;4896748;29;6864;-37
2024/01/29 07:59:36;;;;;;;;;;;;;;;26.43;37.20;95480.34;4901765;28;9554;-37
2024/01/29 08:02:03;;;;;;;;;;;;;;;26.41;37.75;95483.63;4975417;28;9718;-37
2024/01/29 08:04:38;;;;;;;;;;;;;;;26.41;37.94;95482.84;4960499;28;7349;-37
2024/01/29 08:07:06;;;;;;;;;;;;;;;26.40;37.45;95479.34;4981996;28;7266;-37
2024/01/29 08:09:34;;;;;;;;;;;;;;;26.40;37.33;95478.59;4982827;28;7316;-37
2024/01/29 08:12:00;;;;;;;;;;;;;;;26.44;37.80;95487.41;4982654;28;7077;-37
2024/01/29 08:14:26;;;;;;;;;;;;;;;26.41;37.91;95480.84;4995768;28;9450;-37
2024/01/29 08:16:52;;;;;;;;;;;;;;;26.44;38.27;95479.13;5029165;28;7235;-37
2024/01/29 08:19:20;;;;;;;;;;;;;;;26.44;37.10;95479.88;5052223;28;7130;-37
2024/01/29 08:21:47;;;;;;;;;;;;;;;26.43;37.42;95472.84;5043131;28;9448;-40
2024/01/29 08:24:25;;;;;;;;;;;;;;;26.47;37.50;95478.16;5046956;28;7061;-40
2024/01/29 08:26:51;;;;;;;;;;;;;;;26.48;37.66;95476.91;5050456;28;7232;-40
2024/01/29 08:29:33;;;;;;;;;;;;;;;26.47;37.62;95481.66;5068693;28;7091;-40
2024/01/29 08:31:59;;;;;;;;;;;;;;;26.49;37.58;95481.19;5058861;28;7177;-41
2024/01/29 08:34:45;;;;;;;;;;;;;;;26.49;37.53;95478.41;5053648;28;7259;-40
2024/01/29 08:37:41;;;;;;;;;;;;;;;26.48;37.18;95485.94;5041759;28;7085;-42
2024/01/29 08:40:39;;;;;;;;;;;;;;;26.52;37.70;95482.94;5023393;28;7213;-40
2024/01/29 08:43:17;;;;;;;;;;;;;;;26.53;37.39;95487.22;4976221;28;8547;-40
2024/01/29 08:45:45;;;;;;;;;;;;;;;26.51;37.23;95473.91;4975897;28;7117;-41
2024/01/29 08:48:12;;;;;;;;;;;;;;;26.52;37.71;95485.69;4987443;28;8720;-41
2024/01/29 08:50:59;;;;;;;;;;;;;;;26.54;37.44;95489.47;4966416;28;7263;-40
2024/01/29 08:53:25;;;;;;;;;;;;;;;26.56;37.22;95488.97;4983229;28;9199;-41
2024/01/29 08:56:05;;;;;;;;;;;;;;;26.55;36.96;95488.25;4980594;28;9035;-41
2024/01/29 08:58:34;;;;;;;;;;;;;;;26.40;34.16;95484.13;4986619;28;8849;-42
2024/01/29 09:01:12;;;;;;;;;;;;;;;26.21;29.29;95491.97;4985929;28;7327;-40
2024/01/29 09:03:47;;;;;;;;;;;;;;;26.13;32.06;95486.16;4979632;28;7187;-41
2024/01/29 09:06:32;;;;;;;;;;;;;;;26.12;31.26;95484.63;4974064;28;7411;-40
2024/01/29 09:09:04;;;;;;;;;;;;;;;26.12;29.27;95481.13;4979373;28;7249;-40
2024/01/29 09:11:30;;;;;;;;;;;;;;;26.14;29.56;95484.16;4960038;28;9160;-40
2024/01/29 09:13:58;;;;;;;;;;;;;;;26.13;29.83;95486.16;4982722;28;7319;-40
2024/01/29 09:16:28;;;;;;;;;;;;;;;26.16;30.87;95487.19;4968802;28;7002;-42
2024/01/29 09:18:55;;;;;;;;;;;;;;;26.20;30.18;95487.72;5033562;28;9042;-41
2024/01/29 09:21:21;;;;;;;;;;;;;;;26.18;30.32;95484.69;5057443;28;8797;-42
2024/01/29 09:23:47;;;;;;;;;;;;;;;26.21;30.45;95485.72;5065355;28;9774;-41
2024/01/29 09:26:39;;;;;;;;;;;;;;;26.25;30.27;95484.25;5053767;28;7754;-41
2024/01/29 09:29:36;;;;;;;;;;;;;;;26.27;30.75;95487.28;4995384;28;8919;-40
2024/01/29 09:32:12;;;;;;;;;;;;;;;26.27;31.02;95483.75;4946808;28;9177;-41
2024/01/29 09:34:48;;;;;;;;;;;;;;;26.27;30.65;95487.28;4924709;29;9137;-41
2024/01/29 09:37:25;;;;;;;;;;;;;;;26.31;31.45;95482.28;4938800;28;9393;-41
2024/01/29 09:39:57;;;;;;;;;;;;;;;26.31;31.00;95487.81;4918818;29;8724;-43
2024/01/29 09:42:49;;;;;;;;;;;;;;;26.35;31.49;95493.09;4936204;29;7217;-41
2024/01/29 09:45:23;;;;;;;;;;;;;;;26.38;31.54;95501.13;4944854;28;8755;-40
2024/01/29 09:47:52;;;;;;;;;;;;;;;26.37;31.74;95502.41;4947874;28;7328;-40
2024/01/29 09:50:53;;;;;;;;;;;;;;;26.38;31.60;95509.41;4939632;28;6993;-41
2024/01/29 09:53:20;;;;;;;;;;;;;;;26.37;31.71;95507.91;4869134;29;7227;-41
2024/01/29 09:55:47;;;;;;;;;;;;;;;26.42;32.53;95509.19;4870692;29;8851;-41
2024/01/29 09:58:14;;;;;;;;;;;;;;;26.43;31.76;95511.47;4866478;29;8796;-42
2024/01/29 10:00:40;;;;;;;;;;;;;;;26.43;32.59;95511.47;4877145;29;7092;-41
2024/01/29 10:03:15;;;;;;;;;;;;;;;26.45;32.89;95502.69;4862874;29;7008;-42
2024/01/29 10:05:44;;;;;;;;;;;;;;;26.44;32.27;95509.47;4878632;29;9525;-40
2024/01/29 10:08:33;;;;;;;;;;;;;;;26.46;32.47;95518.00;4950557;28;7044;-43
2024/01/29 10:11:01;;;;;;;;;;;;;;;26.47;32.03;95519.53;4988592;28;7057;-40
2024/01/29 10:13:29;;;;;;;;;;;;;;;26.47;33.12;95516.78;4970089;28;8692;-40
2024/01/29 10:15:56;;;;;;;;;;;;;;;26.49;32.86;95514.28;4962485;28;7279;-41
2024/01/29 10:18:22;;;;;;;;;;;;;;;26.51;33.20;95511.78;4965812;28;7171;-42
2024/01/29 10:21:35;;;;;;;;;;;;;;;26.55;32.83;95509.56;4971607;28;7247;-40
2024/01/29 10:24:45;;;;;;;;;;;;;;;26.56;33.14;95502.78;4896637;29;7277;-41
2024/01/29 10:27:13;;;;;;;;;;;;;;;26.56;32.85;95505.53;4887720;29;8091;-40
2024/01/29 10:29:52;;;;;;;;;;;;;;;26.61;33.02;95502.84;4941475;28;7090;-40
2024/01/29 10:32:20;;;;;;;;;;;;;;;26.62;33.09;95498.81;4982926;28;7354;-42
2024/01/29 10:34:47;;;;;;;;;;;;;;;26.59;33.53;95502.56;4963364;28;9248;-40
2024/01/29 10:37:41;;;;;;;;;;;;;;;26.64;33.47;95501.09;4976144;28;9048;-40
2024/01/29 10:40:20;;;;;;;;;;;;;;;26.64;33.42;95495.59;4961878;28;7080;-37
2024/01/29 10:43:21;;;;;;;;;;;;;;;26.65;33.20;95495.09;4978693;28;9425;-37
2024/01/29 10:45:56;;;;;;;;;;;;;;;26.69;33.13;95494.84;4966392;28;8411;-37
2024/01/29 10:48:24;;;;;;;;;;;;;;;26.68;33.39;95490.59;4956837;28;7074;-36
2024/01/29 10:50:56;;;;;;;;;;;;;;;26.69;33.47;95495.59;4957298;28;7292;-37
2024/01/29 10:53:56;;;;;;;;;;;;;;;26.69;33.26;95495.59;4961414;28;9090;-37
2024/01/29 10:56:36;;;;;;;;;;;;;;;26.69;33.48;95483.81;4883028;29;8754;-37
2024/01/29 10:59:59;;;;;;;;;;;;;;;26.71;33.27;95486.81;4910455;29;9101;-37
2024/01/29 11:02:29;;;;;;;;;;;;;;;26.72;34.20;95477.31;4968974;28;8720;-37
2024/01/29 11:05:06;;;;;;;;;;;;;;;26.74;33.36;95480.38;4945601;28;9678;-37
2024/01/29 11:07:45;;;;;;;;;;;;;;;26.75;33.38;95481.88;4958347;28;6971;-37
2024/01/29 11:10:15;;;;;;;;;;;;;;;26.78;33.92;95483.66;4944937;28;7207;-37
2024/01/29 11:12:45;;;;;;;;;;;;;;;26.76;33.74;95472.34;4953941;28;7823;-37
2024/01/29 11:15:14;;;;;;;;;;;;;;;26.77;34.13;95473.88;4933936;29;8777;-37
2024/01/29 11:17:59;;;;;;;;;;;;;;;26.76;34.08;95478.63;4951728;28;8986;-37
2024/01/29 11:20:25;;;;;;;;;;;;;;;26.76;34.18;95466.81;4953450;28;9438;-37
2024/01/29 11:23:25;;;;;;;;;;;;;;;26.76;34.17;95473.09;4937404;28;7578;-37
2024/01/29 11:26:04;;;;;;;;;;;;;;;26.78;33.80;95464.31;4970908;28;9315;-37
2024/01/29 11:28:54;;;;;;;;;;;;;;;26.78;33.90;95469.84;4972734;28;7358;-37
2024/01/29 11:31:41;;;;;;;;;;;;;;;26.78;34.36;95461.56;4991540;28;7255;-37
2024/01/29 11:34:26;;;;;;;;;;;;;;;26.79;33.88;95465.84;5042993;28;7150;-37
2024/01/29 11:36:54;;;;;;;;;;;;;;;26.80;34.22;95464.59;5055876;28;9411;-37
2024/01/29 11:39:42;;;;;;;;;;;;;;;26.83;34.39;95466.38;5057175;28;9051;-37
2024/01/29 11:42:09;;;;;;;;;;;;;;;26.83;34.32;95466.38;5043615;28;7057;-37
2024/01/29 11:44:40;;;;;;;;;;;;;;;26.81;34.55;95457.81;5055232;28;6944;-37
2024/01/29 11:47:14;;;;;;;;;;;;;;;26.83;34.29;95452.56;5060060;28;7317;-37
2024/01/29 11:49:41;;;;;;;;;;;;;;;26.84;34.40;95459.59;5066475;28;8875;-37
2024/01/29 11:52:09;;;;;;;;;;;;;;;26.83;34.81;95458.09;5053009;28;7232;-41
2024/01/29 11:54:51;;;;;;;;;;;;;;;26.88;34.78;95460.13;5063404;28;7247;-40
2024/01/29 11:57:20;;;;;;;;;;;;;;;26.89;34.79;95458.88;5052660;28;9099;-42
2024/01/29 12:00:00;;;;;;;;;;;;;;;26.88;35.10;95460.88;5037133;28;8768;-39
2024/01/29 12:02:30;;;;;;;;;;;;;;;26.86;34.91;95463.38;5031595;28;7005;-40
2024/01/29 12:05:05;;;;;;;;;;;;;;;26.89;34.77;95458.88;5069363;28;7056;-40
2024/01/29 12:07:32;;;;;;;;;;;;;;;26.91;34.60;95453.59;5037982;28;6880;-40
2024/01/29 12:10:11;;;;;;;;;;;;;;;26.92;35.08;95455.13;5039719;28;9333;-41
2024/01/29 12:12:39;;;;;;;;;;;;;;;26.93;34.82;95451.09;5041232;28;9116;-40
2024/01/29 12:15:08;;;;;;;;;;;;;;;26.94;34.41;95455.38;5048878;28;7294;-43
2024/01/29 12:17:39;;;;;;;;;;;;;;;26.92;35.13;95444.81;5068272;28;6994;-41
2024/01/29 12:20:06;;;;;;;;;;;;;;;26.95;34.72;95451.38;5059666;28;7259;-39
2024/01/29 12:22:32;;;;;;;;;;;;;;;26.97;34.94;95439.84;5037054;28;8701;-40
2024/01/29 12:25:00;;;;;;;;;;;;;;;27.00;34.83;95447.88;5037217;28;8867;-39
2024/01/29 12:28:15;;;;;;;;;;;;;;;27.00;34.90;95442.38;5065286;28;7118;-41
2024/01/29 12:31:19;;;;;;;;;;;;;;;27.02;34.97;95439.84;5020369;28;6985;-42
2024/01/29 12:33:47;;;;;;;;;;;;;;;27.04;34.71;95437.34;4959146;28;7367;-40
2024/01/29 12:36:23;;;;;;;;;;;;;;;27.04;34.65;95437.34;4984392;28;7223;-40
2024/01/29 12:38:58;;;;;;;;;;;;;;;27.05;35.14;95433.34;4984251;28;7254;-41
2024/01/29 12:41:37;;;;;;;;;;;;;;;27.08;35.20;95435.09;4979354;28;6984;-40
2024/01/29 12:44:10;;;;;;;;;;;;;;;27.11;35.24;95434.13;4975470;28;9543;-43
2024/01/29 12:46:37;;;;;;;;;;;;;;;27.12;35.21;95427.34;4961200;28;7062;-40
2024/01/29 12:49:06;;;;;;;;;;;;;;;27.13;35.40;95420.56;4946865;28;6921;-41
2024/01/29 12:51:35;;;;;;;;;;;;;;;27.14;35.21;95427.63;4962510;28;9063;-41
2024/01/29 12:54:06;;;;;;;;;;;;;;;27.14;34.45;95430.38;4956351;28;9552;-40
2024/01/29 12:56:33;;;;;;;;;;;;;;;27.16;34.75;95427.13;4956449;28;8849;-43
2024/01/29 12:59:06;;;;;;;;;;;;;;;27.20;34.43;95422.88;4956192;28;7062;-40
2024/01/29 13:01:32;;;;;;;;;;;;;;;27.21;34.51;95412.59;4959890;28;8166;-59
2024/01/29 13:03:57;;;;;;;;;;;;;;;27.23;34.60;95426.66;4962260;28;9271;-58
2024/01/29 13:06:36;;;;;;;;;;;;;;;27.23;34.56;95423.88;4966346;28;8331;-57
2024/01/29 13:09:06;;;;;;;;;;;;;;;27.26;34.43;95420.13;5022962;28;7150;-57
2024/01/29 13:11:32;;;;;;;;;;;;;;;27.27;34.01;95418.88;5035982;28;7426;-57
2024/01/29 13:13:59;;;;;;;;;;;;;;;27.28;33.83;95418.38;5043039;28;7496;-57
2024/01/29 13:16:25;;;;;;;;;;;;;;;27.29;33.75;95413.59;5018336;28;6992;-57
2024/01/29 13:18:53;;;;;;;;;;;;;;;27.27;33.95;95411.34;5024907;28;7215;-57
2024/01/29 13:21:29;;;;;;;;;;;;;;;27.30;33.95;95420.63;4998469;28;7006;-58
2024/01/29 13:24:26;;;;;;;;;;;;;;;27.34;34.43;95424.66;5053521;28;8776;-57
2024/01/29 13:27:06;;;;;;;;;;;;;;;27.39;34.12;95417.66;4988416;28;8439;-58
2024/01/29 13:29:35;;;;;;;;;;;;;;;27.39;34.30;95415.66;4995807;28;9173;-57
2024/01/29 13:32:21;;;;;;;;;;;;;;;27.38;34.44;95419.69;4994405;28;7092;-57
2024/01/29 13:34:49;;;;;;;;;;;;;;;27.41;34.51;95417.94;5007108;28;7240;-58
2024/01/29 13:37:35;;;;;;;;;;;;;;;27.45;34.62;95421.97;4991424;28;9191;-57